ไทเป, ไต้หวัน

07:37 AM CST วัน กันยายน 03, 2014 (GMT +0800)
ITAIPEIT2 | Change Station
CLOSE
Current Station
Personal Weather Stations
Location: Taipei Da'An, Taiwan
Elevation: 30 ft
Nearby Weather Stations

Elev 30 ft 25.03 °N, 121.53 °E | Updated 1 minute ago

Scattered Clouds
มีเมฆคลุมเป็นบางส่วน
85.1 ฟาเรนไฮน์
Feels Like 93 ฟาเรนไฮน์
N
0.0
ลม ความผันแปร ลม from ทางทิศตะวันออกเฉียงใต้
Gusts 2.0 mph

วันนี้
High -- | Low -- ฟาเรนไฮน์
--% Chance of Precip.
Yesterday
High -- | Low -- ฟาเรนไฮน์
Precip. -- นิ้ว
5:35 AM 6:11 PM
ไตรมาสแรก, 56% visible
ความดัน 29.80 นิ้ว
ทัศนวิสัย 6.2 ไมล์
เมฆ Few 2500 ft
มีเมฆคลุมเป็นบางส่วน 30000 ft
ดัชนีความร้อน 93 ฟาเรนไฮน์
อุณหภูมิที่อากาศอาจจับตัวเป็นหยาดน้ำค้าง 74 ฟาเรนไฮน์
ความชื้น 70%
Rainfall 0.00 นิ้ว
Snow Depth Not available.
UV 1.3 out of 12
Pollen Not available.
Air Quality Not available.
Flu Activity Not available.
METAR RCSS 022330Z VRB01KT 9999 FEW025 SCT300 30/22 Q1009 NOSIG RMK A2982

More Conditions Fewer Conditions

ความดัน 29.80 นิ้ว
ทัศนวิสัย 6.2 ไมล์
เมฆ Few 2500 ft
มีเมฆคลุมเป็นบางส่วน 30000 ft
ดัชนีความร้อน 93 ฟาเรนไฮน์
อุณหภูมิที่อากาศอาจจับตัวเป็นหยาดน้ำค้าง 74 ฟาเรนไฮน์
ความชื้น 70%
Rainfall 0.00 นิ้ว
Snow Depth Not available.
UV 1.3 out of 12
Pollen Not available.
Air Quality Not available.
Flu Activity Not available.
METAR RCSS 022330Z VRB01KT 9999 FEW025 SCT300 30/22 Q1009 NOSIG RMK A2982

More Conditions Fewer Conditions

10-Day Weather Forecast

Almanac

ดาราศาสตร์

Sep. 03, 2014 Rise Set
Actual Time 5:35 AM CST 6:11 PM CST
Civil Twilight 5:12 AM CST 6:34 PM CST
Nautical Twilight 4:44 AM CST 7:01 PM CST
Astronomical Twilight 4:17 AM CST 7:28 PM CST
Moon 1:00 PM CST (9/3) ไม่มีพระจันทร์ลับขอบฟ้า
Length Of Visible Light 13h 22m
ความยาวของวัน
12h 35m
Tomorrow will be 1m 23s shorter.
ไตรมาสแรก, 56% of the Moon is Illuminated
Sep 2
ไตรมาสแรก
Sep 8
พระจันทร์เต็มดวง
Sep 15
ไตรมาสล่าสุด
Sep 24
New
Oct 1
ไตรมาสแรก

Yesterday's Extremes

Country Highs Country Lows

Community

WunderPhotos

Upload Photos

1,749,799 photos uploaded!

Nearby

Snow Depth

Not available.

Earthquake Activity

City Distance Mag. Time & Date
No recent earthquake activity has been reported nearby.
Minimum magnitude displayed is 2.5.

Coastal Water Temperatures

สถานที่ อุณหภูมิ
No Stations Reporting

Nearby Weather Stations